createdAt,value
2023-12-02T00:03:59.857Z,93404.28
2023-12-02T00:09:02.070Z,93404.63
2023-12-02T00:14:04.285Z,93401.16
2023-12-02T00:19:06.497Z,93403.84
2023-12-02T00:24:08.854Z,93396.09
2023-12-02T00:29:11.041Z,93403.38
2023-12-02T00:34:13.162Z,93400.25
2023-12-02T00:39:16.122Z,93409.84
2023-12-02T00:44:18.278Z,93411.31
2023-12-02T00:49:20.500Z,93415.56
2023-12-02T00:54:22.820Z,93409.75
2023-12-02T00:59:25.311Z,93410.53
2023-12-02T01:04:27.480Z,93426.63
2023-12-02T01:09:29.953Z,93422.72
2023-12-02T01:14:32.185Z,93429.66
2023-12-02T01:19:35.421Z,93425.41
2023-12-02T01:24:37.857Z,93430.34
2023-12-02T01:29:40.026Z,93431.91
2023-12-02T01:34:42.283Z,93420.38
2023-12-02T01:39:44.448Z,93414.25
2023-12-02T01:44:46.648Z,93411.13
2023-12-02T01:49:49.554Z,93409.56
2023-12-02T01:54:51.798Z,93411.13
2023-12-02T01:59:55.131Z,93413.81
2023-12-02T02:04:57.558Z,93415.69
2023-12-02T02:09:59.768Z,93405.66
2023-12-02T02:15:02.051Z,93403.41
2023-12-02T02:20:05.396Z,93408.78
2023-12-02T02:25:07.807Z,93406.44
2023-12-02T02:30:10.760Z,93422.09
2023-12-02T02:35:12.938Z,93409.47
2023-12-02T02:40:15.484Z,93417.84
2023-12-02T02:45:17.744Z,93417.84
2023-12-02T02:50:21.221Z,93419.75
2023-12-02T02:55:23.362Z,93429.34
2023-12-02T03:00:25.606Z,93433.16
2023-12-02T03:05:28.235Z,93423.53
2023-12-02T03:10:30.971Z,93427.00
2023-12-02T03:15:33.190Z,93428.13
2023-12-02T03:20:35.525Z,93428.47
2023-12-02T03:25:37.696Z,93444.56
2023-12-02T03:30:39.951Z,93439.19
2023-12-02T03:35:42.169Z,93444.13
2023-12-02T03:40:44.293Z,93465.22
2023-12-02T03:45:47.741Z,93459.97
2023-12-02T03:50:49.853Z,93469.81
2023-12-02T03:55:54.420Z,93451.38
2023-12-02T04:00:56.744Z,93431.47
2023-12-02T04:05:58.872Z,93414.63
2023-12-02T04:11:01.033Z,93409.56
2023-12-02T04:16:03.223Z,93424.09
2023-12-02T04:21:10.054Z,93482.78
2023-12-02T04:26:12.356Z,93496.03
2023-12-02T04:31:14.571Z,93497.28
2023-12-02T04:36:16.769Z,93489.22
2023-12-02T04:41:19.026Z,93478.84
2023-12-02T04:46:21.202Z,93482.63
2023-12-02T04:51:23.741Z,93453.91
2023-12-02T04:56:26.389Z,93467.34
2023-12-02T05:01:28.611Z,93488.91
2023-12-02T05:06:30.801Z,93505.66
2023-12-02T05:11:32.943Z,93508.66
2023-12-02T05:16:35.102Z,93518.28
2023-12-02T05:21:38.347Z,93533.59
2023-12-02T05:26:40.564Z,93547.00
2023-12-02T05:31:42.742Z,93545.44
2023-12-02T05:36:50.718Z,93546.09
2023-12-02T05:41:53.137Z,93551.13
2023-12-02T05:46:55.574Z,93532.34
2023-12-02T05:51:57.804Z,93534.25
2023-12-02T05:57:00.010Z,93538.84
2023-12-02T06:02:02.116Z,93536.94
2023-12-02T06:07:04.414Z,93538.41
2023-12-02T06:12:06.964Z,93543.75
2023-12-02T06:17:10.151Z,93556.72
2023-12-02T06:22:12.264Z,93567.97
2023-12-02T06:27:14.481Z,93587.78
2023-12-02T06:32:16.848Z,93594.25
2023-12-02T06:37:18.990Z,93611.91
2023-12-02T06:42:21.114Z,93610.34
2023-12-02T06:47:23.363Z,93630.22
2023-12-02T06:52:25.555Z,93637.94
2023-12-02T06:57:27.758Z,93675.47
2023-12-02T07:02:30.420Z,93654.81
2023-12-02T07:07:32.614Z,93665.41
2023-12-02T07:12:34.869Z,93663.84
2023-12-02T07:17:37.734Z,93665.41
2023-12-02T07:22:39.951Z,93695.38
2023-12-02T07:27:42.423Z,93704.31
2023-12-02T07:32:47.692Z,93700.72
2023-12-02T07:37:50.459Z,93707.31
2023-12-02T07:42:52.986Z,93714.13
2023-12-02T07:47:55.524Z,93711.13
2023-12-02T07:52:57.766Z,93700.72
2023-12-02T07:58:00.065Z,93703.41
2023-12-02T08:03:02.583Z,93701.50
2023-12-02T08:08:05.093Z,93714.13
2023-12-02T08:13:07.474Z,93721.06
2023-12-02T08:18:09.794Z,93722.19
2023-12-02T08:23:11.955Z,93723.75
2023-12-02T08:28:14.162Z,93749.00
2023-12-02T08:33:16.306Z,93761.28
2023-12-02T08:38:18.387Z,93750.09
2023-12-02T08:43:20.544Z,93742.06
2023-12-02T08:48:22.878Z,93748.22
2023-12-02T08:53:25.102Z,93750.91
2023-12-02T08:58:27.604Z,93759.25
2023-12-02T09:03:30.068Z,93770.44
2023-12-02T09:08:32.446Z,93785.09
2023-12-02T09:13:40.610Z,93792.81
2023-12-02T09:18:43.141Z,93808.56
2023-12-02T09:23:45.672Z,93800.53
2023-12-02T09:28:48.249Z,93800.19
2023-12-02T09:34:01.782Z,93803.66
2023-12-02T09:39:16.889Z,93807.13
2023-12-02T09:44:41.777Z,93798.28
2023-12-02T09:50:02.244Z,93812.16
2023-12-02T09:55:10.844Z,93830.16
2023-12-02T10:00:50.188Z,93848.59
2023-12-02T10:06:28.081Z,93869.28
2023-12-02T10:11:58.920Z,93905.69
2023-12-02T10:17:04.094Z,93929.84
2023-12-02T10:22:07.722Z,93939.00
2023-12-02T10:27:14.704Z,93933.63
2023-12-02T10:32:31.956Z,93922.91
2023-12-02T10:37:39.315Z,93905.25
2023-12-02T10:42:53.445Z,93891.06
2023-12-02T10:47:56.676Z,93894.06
2023-12-02T10:53:02.813Z,93894.06
2023-12-02T10:58:06.197Z,93898.97
2023-12-02T11:03:21.193Z,93903.22
2023-12-02T11:08:51.759Z,93915.06
2023-12-02T11:13:56.247Z,93914.41
2023-12-02T11:19:07.867Z,93915.84
2023-12-02T11:24:48.483Z,93925.78
2023-12-02T11:30:08.506Z,93959.53
2023-12-02T11:35:20.458Z,93964.44
2023-12-02T11:40:26.076Z,93982.44
2023-12-02T11:45:34.562Z,93989.22
2023-12-02T11:50:58.655Z,94009.56
2023-12-02T11:56:00.745Z,94021.41
2023-12-02T12:01:05.956Z,94026.75
2023-12-02T12:06:36.722Z,94036.38
2023-12-02T12:11:39.854Z,94054.38
2023-12-02T12:16:43.763Z,94065.41
2023-12-02T12:21:49.008Z,94075.34
2023-12-02T12:26:51.702Z,94082.63
2023-12-02T12:31:57.593Z,94098.72
2023-12-02T12:36:59.847Z,94104.06
2023-12-02T12:42:02.006Z,94120.47
2023-12-02T12:47:04.720Z,94126.94
2023-12-02T12:52:11.268Z,94139.56
2023-12-02T12:57:18.899Z,94143.34
2023-12-02T13:03:02.154Z,94151.09
2023-12-02T13:08:10.819Z,94151.09
2023-12-02T13:13:16.315Z,94161.81
2023-12-02T13:18:22.729Z,94161.16
2023-12-02T13:23:25.443Z,94173.94
2023-12-02T13:28:33.550Z,94184.66
2023-12-02T13:33:51.121Z,94203.44
2023-12-02T13:39:19.752Z,94208.78
2023-12-02T13:44:24.392Z,94212.44
2023-12-02T13:49:30.901Z,94234.81
2023-12-02T13:54:46.281Z,94245.88
2023-12-02T13:59:48.929Z,94259.28
2023-12-02T14:05:07.998Z,94255.81
2023-12-02T14:10:11.624Z,94268.09
2023-12-02T14:15:50.349Z,94285.63
2023-12-02T14:21:32.686Z,94303.59
2023-12-02T14:27:03.116Z,94314.31
2023-12-02T14:32:47.692Z,94332.31
2023-12-02T14:38:31.451Z,94334.50
2023-12-02T14:43:40.679Z,94335.28
2023-12-02T14:48:44.124Z,94346.63
2023-12-02T14:53:46.680Z,94373.91
2023-12-02T14:58:49.119Z,94381.47
2023-12-02T15:03:55.198Z,94393.63
2023-12-02T15:09:01.661Z,94403.72
2023-12-02T15:14:04.912Z,94416.97
2023-12-02T15:19:10.921Z,94431.16
2023-12-02T15:24:13.495Z,94439.50
2023-12-02T15:29:16.288Z,94457.66
2023-12-02T15:34:18.652Z,94454.81
2023-12-02T15:39:21.019Z,94473.25
2023-12-02T15:44:24.192Z,94476.56
2023-12-02T15:49:26.556Z,94495.03
2023-12-02T15:54:30.236Z,94507.63
2023-12-02T15:59:33.173Z,94518.34
2023-12-02T16:04:37.782Z,94529.38
2023-12-02T16:09:47.742Z,94536.66
2023-12-02T16:14:50.348Z,94555.41
2023-12-02T16:19:54.640Z,94559.66
2023-12-02T16:24:57.414Z,94571.81
2023-12-02T16:29:59.692Z,94598.31
2023-12-02T16:35:01.930Z,94605.06
2023-12-02T16:40:05.693Z,94618.16
2023-12-02T16:45:22.442Z,94627.31
2023-12-02T16:50:32.212Z,94639.94
2023-12-02T16:55:35.387Z,94641.03
2023-12-02T17:00:40.282Z,94653.34
2023-12-02T17:05:42.471Z,94665.47
2023-12-02T17:10:44.871Z,94671.31
2023-12-02T17:15:47.141Z,94685.81
2023-12-02T17:20:49.564Z,94689.91
2023-12-02T17:25:56.804Z,94705.38
2023-12-02T17:31:00.266Z,94710.25
2023-12-02T17:36:02.496Z,94728.22
2023-12-02T17:41:05.241Z,94738.16
2023-12-02T17:46:07.725Z,94748.06
2023-12-02T17:51:10.697Z,94753.75
2023-12-02T17:56:13.426Z,94770.31
2023-12-02T18:01:17.077Z,94770.91
2023-12-02T18:06:19.766Z,94793.16
2023-12-02T18:11:22.030Z,94789.19
2023-12-02T18:16:24.386Z,94799.31
2023-12-02T18:21:27.441Z,94808.44
2023-12-02T18:26:29.819Z,94819.47
2023-12-02T18:31:32.785Z,94831.00
2023-12-02T18:36:35.077Z,94839.81
2023-12-02T18:41:37.278Z,94850.84
2023-12-02T18:46:39.657Z,94855.13
2023-12-02T18:51:41.946Z,94864.25
2023-12-02T18:56:44.113Z,94871.28
2023-12-02T19:01:46.289Z,94884.13
2023-12-02T19:06:48.617Z,94893.44
2023-12-02T19:11:50.804Z,94887.59
2023-12-02T19:16:53.148Z,94903.19
2023-12-02T19:21:55.343Z,94909.34
2023-12-02T19:26:58.049Z,94903.19
2023-12-02T19:32:00.574Z,94910.13
2023-12-02T19:37:03.534Z,94927.31
2023-12-02T19:42:08.113Z,94931.88
2023-12-02T19:47:10.517Z,94948.75
2023-12-02T19:52:12.833Z,94954.13
2023-12-02T19:57:15.220Z,94964.03
2023-12-02T20:02:17.881Z,94964.84
2023-12-02T20:07:21.207Z,94982.81
2023-12-02T20:12:23.556Z,94987.38
2023-12-02T20:17:26.067Z,94994.59
2023-12-02T20:22:28.407Z,95002.63
2023-12-02T20:27:30.955Z,95007.00
2023-12-02T20:32:33.656Z,95028.16
2023-12-02T20:37:36.115Z,95034.59
2023-12-02T20:42:38.909Z,95045.31
2023-12-02T20:47:41.355Z,95045.31
2023-12-02T20:52:43.758Z,95056.84
2023-12-02T20:57:46.151Z,95062.50
2023-12-02T21:02:48.442Z,95070.53
2023-12-02T21:07:50.955Z,95076.97
2023-12-02T21:12:53.207Z,95068.94
2023-12-02T21:17:55.507Z,95068.94
2023-12-02T21:22:57.760Z,95058.22
2023-12-02T21:28:00.111Z,95076.47
2023-12-02T21:33:04.185Z,95095.25
2023-12-02T21:38:28.969Z,95103.28
2023-12-02T21:43:31.530Z,95109.22
2023-12-02T21:48:38.383Z,95115.88
2023-12-02T21:53:40.584Z,95125.03
2023-12-02T21:58:43.021Z,95132.28
2023-12-02T22:03:45.654Z,95149.94
2023-12-02T22:08:47.892Z,95154.50
2023-12-02T22:13:50.183Z,95154.50
2023-12-02T22:18:52.655Z,95160.94
2023-12-02T22:24:00.937Z,95169.78
2023-12-02T22:29:09.397Z,95168.78
2023-12-02T22:34:15.388Z,95196.09
2023-12-02T22:39:24.670Z,95208.41
2023-12-02T22:44:26.988Z,95215.66
2023-12-02T22:49:34.061Z,95212.16
2023-12-02T22:54:41.131Z,95220.50
2023-12-02T22:59:43.451Z,95228.25
2023-12-02T23:04:45.874Z,95225.06
2023-12-02T23:09:52.974Z,95225.88
2023-12-02T23:15:00.349Z,95228.91
2023-12-02T23:20:05.092Z,95238.47
2023-12-02T23:25:12.247Z,95246.78
2023-12-02T23:30:14.914Z,95246.50
2023-12-02T23:35:21.506Z,95247.59
2023-12-02T23:40:31.408Z,95244.13
2023-12-02T23:45:34.077Z,95247.88
2023-12-02T23:50:37.217Z,95255.94
2023-12-02T23:55:39.601Z,95252.97
